sensor_id;sensor_type;location;lat;lon;timestamp;P1;durP1;ratioP1;P2;durP2;ratioP2
22234;SDS011;11286;45.596;5.284;2022-11-20T00:00:53;15.00;;;8.25;;
22234;SDS011;11286;45.596;5.284;2022-11-20T00:03:19;12.18;;;7.32;;
22234;SDS011;11286;45.596;5.284;2022-11-20T00:05:44;9.77;;;5.65;;
22234;SDS011;11286;45.596;5.284;2022-11-20T00:08:10;19.15;;;15.45;;
22234;SDS011;11286;45.596;5.284;2022-11-20T00:10:37;28.38;;;14.68;;
22234;SDS011;11286;45.596;5.284;2022-11-20T00:13:06;34.33;;;18.52;;
22234;SDS011;11286;45.596;5.284;2022-11-20T00:15:32;18.70;;;11.98;;
22234;SDS011;11286;45.596;5.284;2022-11-20T00:17:58;12.30;;;6.78;;
22234;SDS011;11286;45.596;5.284;2022-11-20T00:20:23;9.13;;;5.00;;
22234;SDS011;11286;45.596;5.284;2022-11-20T00:22:49;25.10;;;12.00;;
22234;SDS011;11286;45.596;5.284;2022-11-20T00:25:15;58.03;;;27.88;;
22234;SDS011;11286;45.596;5.284;2022-11-20T00:27:41;15.48;;;7.82;;
22234;SDS011;11286;45.596;5.284;2022-11-20T00:30:07;7.97;;;5.35;;
22234;SDS011;11286;45.596;5.284;2022-11-20T00:32:33;11.18;;;6.57;;
22234;SDS011;11286;45.596;5.284;2022-11-20T00:34:59;7.65;;;4.78;;
22234;SDS011;11286;45.596;5.284;2022-11-20T00:37:25;17.92;;;9.93;;
22234;SDS011;11286;45.596;5.284;2022-11-20T00:39:51;8.77;;;4.97;;
22234;SDS011;11286;45.596;5.284;2022-11-20T00:42:16;10.23;;;6.53;;
22234;SDS011;11286;45.596;5.284;2022-11-20T00:44:42;6.93;;;4.97;;
22234;SDS011;11286;45.596;5.284;2022-11-20T00:47:07;8.20;;;5.18;;
22234;SDS011;11286;45.596;5.284;2022-11-20T00:49:33;10.13;;;6.25;;
22234;SDS011;11286;45.596;5.284;2022-11-20T00:51:59;8.13;;;5.60;;
22234;SDS011;11286;45.596;5.284;2022-11-20T00:54:24;9.73;;;6.15;;
22234;SDS011;11286;45.596;5.284;2022-11-20T00:56:52;8.88;;;5.32;;
22234;SDS011;11286;45.596;5.284;2022-11-20T00:59:18;8.02;;;4.97;;
22234;SDS011;11286;45.596;5.284;2022-11-20T01:01:44;18.05;;;10.13;;
22234;SDS011;11286;45.596;5.284;2022-11-20T01:04:09;12.65;;;9.13;;
22234;SDS011;11286;45.596;5.284;2022-11-20T01:06:36;13.77;;;8.27;;
22234;SDS011;11286;45.596;5.284;2022-11-20T01:09:06;18.08;;;8.88;;
22234;SDS011;11286;45.596;5.284;2022-11-20T01:11:35;7.95;;;5.50;;
22234;SDS011;11286;45.596;5.284;2022-11-20T01:14:04;11.70;;;6.63;;
22234;SDS011;11286;45.596;5.284;2022-11-20T01:16:36;17.45;;;9.57;;
22234;SDS011;11286;45.596;5.284;2022-11-20T01:19:04;19.95;;;10.50;;
22234;SDS011;11286;45.596;5.284;2022-11-20T01:21:33;7.75;;;5.65;;
22234;SDS011;11286;45.596;5.284;2022-11-20T01:24:01;5.90;;;5.05;;
22234;SDS011;11286;45.596;5.284;2022-11-20T01:26:30;19.42;;;10.80;;
22234;SDS011;11286;45.596;5.284;2022-11-20T01:28:57;14.95;;;8.13;;
22234;SDS011;11286;45.596;5.284;2022-11-20T01:31:25;11.43;;;6.30;;
22234;SDS011;11286;45.596;5.284;2022-11-20T01:33:52;8.38;;;5.78;;
22234;SDS011;11286;45.596;5.284;2022-11-20T01:36:20;23.27;;;11.68;;
22234;SDS011;11286;45.596;5.284;2022-11-20T01:38:47;27.88;;;14.90;;
22234;SDS011;11286;45.596;5.284;2022-11-20T01:41:13;57.08;;;28.83;;
22234;SDS011;11286;45.596;5.284;2022-11-20T01:44:00;68.50;;;34.72;;
22234;SDS011;11286;45.596;5.284;2022-11-20T01:46:27;121.13;;;57.63;;
22234;SDS011;11286;45.596;5.284;2022-11-20T01:54:04;7.50;;;6.30;;
22234;SDS011;11286;45.596;5.284;2022-11-20T01:56:35;23.55;;;12.93;;
22234;SDS011;11286;45.596;5.284;2022-11-20T01:59:04;16.13;;;9.30;;
22234;SDS011;11286;45.596;5.284;2022-11-20T02:01:32;15.25;;;10.18;;
22234;SDS011;11286;45.596;5.284;2022-11-20T02:03:58;11.30;;;7.22;;
22234;SDS011;11286;45.596;5.284;2022-11-20T02:06:25;18.35;;;10.70;;
22234;SDS011;11286;45.596;5.284;2022-11-20T02:08:56;7.07;;;6.03;;
22234;SDS011;11286;45.596;5.284;2022-11-20T02:11:22;10.02;;;7.25;;
22234;SDS011;11286;45.596;5.284;2022-11-20T02:13:48;9.38;;;6.43;;
22234;SDS011;11286;45.596;5.284;2022-11-20T02:18:46;9.10;;;7.13;;
22234;SDS011;11286;45.596;5.284;2022-11-20T02:21:23;15.80;;;9.90;;
22234;SDS011;11286;45.596;5.284;2022-11-20T02:24:11;8.73;;;6.40;;
22234;SDS011;11286;45.596;5.284;2022-11-20T02:29:08;16.52;;;8.95;;
22234;SDS011;11286;45.596;5.284;2022-11-20T02:31:35;18.55;;;9.90;;
22234;SDS011;11286;45.596;5.284;2022-11-20T02:34:03;11.00;;;6.30;;
22234;SDS011;11286;45.596;5.284;2022-11-20T02:36:28;9.30;;;6.72;;
22234;SDS011;11286;45.596;5.284;2022-11-20T02:38:57;10.15;;;6.78;;
22234;SDS011;11286;45.596;5.284;2022-11-20T02:41:30;8.93;;;6.25;;
22234;SDS011;11286;45.596;5.284;2022-11-20T02:44:02;10.60;;;6.45;;
22234;SDS011;11286;45.596;5.284;2022-11-20T02:46:29;8.60;;;5.80;;
22234;SDS011;11286;45.596;5.284;2022-11-20T02:48:56;9.20;;;6.30;;
22234;SDS011;11286;45.596;5.284;2022-11-20T02:51:21;10.57;;;5.85;;
22234;SDS011;11286;45.596;5.284;2022-11-20T02:53:48;10.45;;;6.10;;
22234;SDS011;11286;45.596;5.284;2022-11-20T02:56:13;6.35;;;5.75;;
22234;SDS011;11286;45.596;5.284;2022-11-20T02:58:39;9.60;;;6.20;;
22234;SDS011;11286;45.596;5.284;2022-11-20T03:01:04;11.10;;;6.70;;
22234;SDS011;11286;45.596;5.284;2022-11-20T03:03:30;9.85;;;6.32;;
22234;SDS011;11286;45.596;5.284;2022-11-20T03:05:58;9.38;;;6.07;;
22234;SDS011;11286;45.596;5.284;2022-11-20T03:08:24;9.00;;;5.63;;
22234;SDS011;11286;45.596;5.284;2022-11-20T03:10:50;12.57;;;7.18;;
22234;SDS011;11286;45.596;5.284;2022-11-20T03:13:16;8.40;;;6.20;;
22234;SDS011;11286;45.596;5.284;2022-11-20T03:15:42;11.30;;;6.30;;
22234;SDS011;11286;45.596;5.284;2022-11-20T03:18:08;8.20;;;5.90;;
22234;SDS011;11286;45.596;5.284;2022-11-20T03:20:34;17.60;;;9.65;;
22234;SDS011;11286;45.596;5.284;2022-11-20T03:23:00;8.07;;;6.43;;
22234;SDS011;11286;45.596;5.284;2022-11-20T03:25:25;19.15;;;8.32;;
22234;SDS011;11286;45.596;5.284;2022-11-20T03:27:51;14.18;;;9.15;;
22234;SDS011;11286;45.596;5.284;2022-11-20T03:30:17;12.38;;;7.03;;
22234;SDS011;11286;45.596;5.284;2022-11-20T03:32:42;11.35;;;6.90;;
22234;SDS011;11286;45.596;5.284;2022-11-20T03:35:08;10.52;;;6.80;;
22234;SDS011;11286;45.596;5.284;2022-11-20T03:37:34;7.43;;;6.07;;
22234;SDS011;11286;45.596;5.284;2022-11-20T03:40:00;15.07;;;9.52;;
22234;SDS011;11286;45.596;5.284;2022-11-20T03:42:25;12.23;;;6.63;;
22234;SDS011;11286;45.596;5.284;2022-11-20T03:45:09;10.57;;;7.15;;
22234;SDS011;11286;45.596;5.284;2022-11-20T03:47:35;10.18;;;7.30;;
22234;SDS011;11286;45.596;5.284;2022-11-20T03:50:01;11.43;;;7.53;;
22234;SDS011;11286;45.596;5.284;2022-11-20T03:52:27;16.50;;;9.65;;
22234;SDS011;11286;45.596;5.284;2022-11-20T03:54:53;33.63;;;17.17;;
22234;SDS011;11286;45.596;5.284;2022-11-20T03:57:18;20.33;;;13.05;;
22234;SDS011;11286;45.596;5.284;2022-11-20T03:59:44;12.77;;;7.78;;
22234;SDS011;11286;45.596;5.284;2022-11-20T04:02:09;12.10;;;8.65;;
22234;SDS011;11286;45.596;5.284;2022-11-20T04:04:35;16.75;;;10.65;;
22234;SDS011;11286;45.596;5.284;2022-11-20T04:07:01;21.08;;;11.02;;
22234;SDS011;11286;45.596;5.284;2022-11-20T04:09:27;32.13;;;17.40;;
22234;SDS011;11286;45.596;5.284;2022-11-20T04:11:53;14.05;;;8.32;;
22234;SDS011;11286;45.596;5.284;2022-11-20T04:14:18;11.18;;;7.43;;
22234;SDS011;11286;45.596;5.284;2022-11-20T04:16:44;13.80;;;8.77;;
22234;SDS011;11286;45.596;5.284;2022-11-20T04:19:10;13.00;;;7.80;;
22234;SDS011;11286;45.596;5.284;2022-11-20T04:21:38;11.20;;;7.72;;
22234;SDS011;11286;45.596;5.284;2022-11-20T04:24:03;10.63;;;7.45;;
22234;SDS011;11286;45.596;5.284;2022-11-20T04:26:30;12.15;;;7.55;;
22234;SDS011;11286;45.596;5.284;2022-11-20T04:28:56;10.65;;;7.80;;
22234;SDS011;11286;45.596;5.284;2022-11-20T04:31:23;11.93;;;7.53;;
22234;SDS011;11286;45.596;5.284;2022-11-20T04:33:51;19.75;;;11.00;;
22234;SDS011;11286;45.596;5.284;2022-11-20T04:36:22;14.57;;;8.32;;
22234;SDS011;11286;45.596;5.284;2022-11-20T04:38:53;11.18;;;7.93;;
22234;SDS011;11286;45.596;5.284;2022-11-20T04:41:27;12.60;;;8.20;;
22234;SDS011;11286;45.596;5.284;2022-11-20T04:43:56;13.73;;;9.07;;
22234;SDS011;11286;45.596;5.284;2022-11-20T04:46:28;12.98;;;9.07;;
22234;SDS011;11286;45.596;5.284;2022-11-20T04:49:04;10.50;;;7.63;;
22234;SDS011;11286;45.596;5.284;2022-11-20T04:51:31;12.30;;;7.70;;
22234;SDS011;11286;45.596;5.284;2022-11-20T04:53:57;11.63;;;7.45;;
22234;SDS011;11286;45.596;5.284;2022-11-20T04:56:23;20.80;;;7.72;;
22234;SDS011;11286;45.596;5.284;2022-11-20T04:58:49;13.27;;;7.38;;
22234;SDS011;11286;45.596;5.284;2022-11-20T05:01:15;9.25;;;7.38;;
22234;SDS011;11286;45.596;5.284;2022-11-20T05:03:44;8.85;;;7.20;;
22234;SDS011;11286;45.596;5.284;2022-11-20T05:06:12;11.15;;;7.45;;
22234;SDS011;11286;45.596;5.284;2022-11-20T05:08:38;12.63;;;8.18;;
22234;SDS011;11286;45.596;5.284;2022-11-20T05:11:08;9.48;;;7.13;;
22234;SDS011;11286;45.596;5.284;2022-11-20T05:13:38;11.32;;;7.47;;
22234;SDS011;11286;45.596;5.284;2022-11-20T05:16:05;12.38;;;7.72;;
22234;SDS011;11286;45.596;5.284;2022-11-20T05:18:33;10.73;;;8.32;;
22234;SDS011;11286;45.596;5.284;2022-11-20T05:20:59;12.38;;;7.55;;
22234;SDS011;11286;45.596;5.284;2022-11-20T05:23:26;10.90;;;7.47;;
22234;SDS011;11286;45.596;5.284;2022-11-20T05:25:53;9.98;;;7.00;;
22234;SDS011;11286;45.596;5.284;2022-11-20T05:28:20;8.18;;;6.95;;
22234;SDS011;11286;45.596;5.284;2022-11-20T05:30:46;10.73;;;7.00;;
22234;SDS011;11286;45.596;5.284;2022-11-20T05:33:11;9.48;;;7.07;;
22234;SDS011;11286;45.596;5.284;2022-11-20T05:35:37;10.57;;;7.00;;
22234;SDS011;11286;45.596;5.284;2022-11-20T05:38:02;11.88;;;6.75;;
22234;SDS011;11286;45.596;5.284;2022-11-20T05:40:28;10.18;;;6.97;;
22234;SDS011;11286;45.596;5.284;2022-11-20T05:42:54;10.10;;;7.22;;
22234;SDS011;11286;45.596;5.284;2022-11-20T05:45:19;9.88;;;7.45;;
22234;SDS011;11286;45.596;5.284;2022-11-20T05:47:45;9.50;;;7.32;;
22234;SDS011;11286;45.596;5.284;2022-11-20T05:50:10;9.80;;;6.60;;
22234;SDS011;11286;45.596;5.284;2022-11-20T05:52:36;9.23;;;6.85;;
22234;SDS011;11286;45.596;5.284;2022-11-20T05:55:02;9.07;;;6.70;;
22234;SDS011;11286;45.596;5.284;2022-11-20T05:57:28;8.48;;;6.70;;
22234;SDS011;11286;45.596;5.284;2022-11-20T05:59:53;12.80;;;6.82;;
22234;SDS011;11286;45.596;5.284;2022-11-20T06:02:19;8.90;;;6.53;;
22234;SDS011;11286;45.596;5.284;2022-11-20T06:04:44;9.48;;;6.25;;
22234;SDS011;11286;45.596;5.284;2022-11-20T06:07:10;10.98;;;6.50;;
22234;SDS011;11286;45.596;5.284;2022-11-20T06:09:35;9.25;;;6.95;;
22234;SDS011;11286;45.596;5.284;2022-11-20T06:12:01;9.15;;;7.43;;
22234;SDS011;11286;45.596;5.284;2022-11-20T06:14:27;9.75;;;6.97;;
22234;SDS011;11286;45.596;5.284;2022-11-20T06:16:52;10.93;;;6.63;;
22234;SDS011;11286;45.596;5.284;2022-11-20T06:19:18;10.15;;;7.15;;
22234;SDS011;11286;45.596;5.284;2022-11-20T06:21:43;13.43;;;7.07;;
22234;SDS011;11286;45.596;5.284;2022-11-20T06:24:09;9.48;;;6.90;;
22234;SDS011;11286;45.596;5.284;2022-11-20T06:26:35;9.45;;;7.28;;
22234;SDS011;11286;45.596;5.284;2022-11-20T06:29:01;9.32;;;7.57;;
22234;SDS011;11286;45.596;5.284;2022-11-20T06:31:27;10.57;;;6.80;;
22234;SDS011;11286;45.596;5.284;2022-11-20T06:33:53;11.15;;;7.32;;
22234;SDS011;11286;45.596;5.284;2022-11-20T06:36:21;9.63;;;6.65;;
22234;SDS011;11286;45.596;5.284;2022-11-20T06:38:47;9.27;;;7.25;;
22234;SDS011;11286;45.596;5.284;2022-11-20T06:41:15;9.63;;;6.88;;
22234;SDS011;11286;45.596;5.284;2022-11-20T06:43:42;10.98;;;7.22;;
22234;SDS011;11286;45.596;5.284;2022-11-20T06:46:11;9.70;;;7.22;;
22234;SDS011;11286;45.596;5.284;2022-11-20T06:48:38;9.65;;;7.18;;
22234;SDS011;11286;45.596;5.284;2022-11-20T06:51:05;10.45;;;7.60;;
22234;SDS011;11286;45.596;5.284;2022-11-20T06:53:32;12.02;;;7.57;;
22234;SDS011;11286;45.596;5.284;2022-11-20T06:55:58;11.93;;;8.55;;
22234;SDS011;11286;45.596;5.284;2022-11-20T06:58:25;9.80;;;7.78;;
22234;SDS011;11286;45.596;5.284;2022-11-20T07:00:53;12.30;;;7.18;;
22234;SDS011;11286;45.596;5.284;2022-11-20T07:03:22;10.05;;;7.75;;
22234;SDS011;11286;45.596;5.284;2022-11-20T07:05:48;9.63;;;7.40;;
22234;SDS011;11286;45.596;5.284;2022-11-20T07:08:13;12.00;;;7.30;;
22234;SDS011;11286;45.596;5.284;2022-11-20T07:10:39;10.90;;;7.72;;
22234;SDS011;11286;45.596;5.284;2022-11-20T07:13:04;10.50;;;8.02;;
22234;SDS011;11286;45.596;5.284;2022-11-20T07:15:31;8.95;;;7.10;;
22234;SDS011;11286;45.596;5.284;2022-11-20T07:18:00;12.07;;;7.47;;
22234;SDS011;11286;45.596;5.284;2022-11-20T07:20:26;10.85;;;8.27;;
22234;SDS011;11286;45.596;5.284;2022-11-20T07:22:55;13.02;;;7.57;;
22234;SDS011;11286;45.596;5.284;2022-11-20T07:25:22;11.25;;;8.07;;
22234;SDS011;11286;45.596;5.284;2022-11-20T07:27:48;12.13;;;7.97;;
22234;SDS011;11286;45.596;5.284;2022-11-20T07:30:14;11.82;;;8.13;;
22234;SDS011;11286;45.596;5.284;2022-11-20T07:32:40;10.63;;;9.10;;
22234;SDS011;11286;45.596;5.284;2022-11-20T07:35:06;12.82;;;9.82;;
22234;SDS011;11286;45.596;5.284;2022-11-20T07:37:35;12.82;;;9.10;;
22234;SDS011;11286;45.596;5.284;2022-11-20T07:40:01;13.32;;;10.00;;
22234;SDS011;11286;45.596;5.284;2022-11-20T07:42:27;15.63;;;10.50;;
22234;SDS011;11286;45.596;5.284;2022-11-20T07:44:52;20.40;;;12.27;;
22234;SDS011;11286;45.596;5.284;2022-11-20T07:47:18;19.02;;;13.02;;
22234;SDS011;11286;45.596;5.284;2022-11-20T07:49:43;20.60;;;15.13;;
22234;SDS011;11286;45.596;5.284;2022-11-20T07:52:09;15.38;;;11.38;;
22234;SDS011;11286;45.596;5.284;2022-11-20T07:54:34;16.02;;;11.10;;
22234;SDS011;11286;45.596;5.284;2022-11-20T07:57:00;15.30;;;10.60;;
22234;SDS011;11286;45.596;5.284;2022-11-20T07:59:26;13.30;;;10.70;;
22234;SDS011;11286;45.596;5.284;2022-11-20T08:01:51;12.90;;;10.10;;
22234;SDS011;11286;45.596;5.284;2022-11-20T08:04:17;14.23;;;9.93;;
22234;SDS011;11286;45.596;5.284;2022-11-20T08:06:42;14.02;;;9.68;;
22234;SDS011;11286;45.596;5.284;2022-11-20T08:09:08;14.10;;;9.18;;
22234;SDS011;11286;45.596;5.284;2022-11-20T08:11:34;11.10;;;8.27;;
22234;SDS011;11286;45.596;5.284;2022-11-20T08:14:19;10.27;;;8.13;;
22234;SDS011;11286;45.596;5.284;2022-11-20T08:16:45;10.90;;;8.23;;
22234;SDS011;11286;45.596;5.284;2022-11-20T08:19:12;10.82;;;8.35;;
22234;SDS011;11286;45.596;5.284;2022-11-20T08:21:39;9.73;;;8.15;;
22234;SDS011;11286;45.596;5.284;2022-11-20T08:24:05;12.32;;;8.48;;
22234;SDS011;11286;45.596;5.284;2022-11-20T08:26:32;12.20;;;7.57;;
22234;SDS011;11286;45.596;5.284;2022-11-20T08:28:58;8.48;;;7.40;;
22234;SDS011;11286;45.596;5.284;2022-11-20T08:31:24;10.27;;;6.85;;
22234;SDS011;11286;45.596;5.284;2022-11-20T08:33:51;10.38;;;7.43;;
22234;SDS011;11286;45.596;5.284;2022-11-20T08:36:17;7.85;;;6.53;;
22234;SDS011;11286;45.596;5.284;2022-11-20T08:38:50;9.02;;;6.38;;
22234;SDS011;11286;45.596;5.284;2022-11-20T08:41:17;9.73;;;6.63;;
22234;SDS011;11286;45.596;5.284;2022-11-20T08:43:48;9.45;;;6.22;;
22234;SDS011;11286;45.596;5.284;2022-11-20T08:46:15;8.88;;;7.13;;
22234;SDS011;11286;45.596;5.284;2022-11-20T08:48:41;10.07;;;5.50;;
22234;SDS011;11286;45.596;5.284;2022-11-20T08:51:07;8.60;;;6.28;;
22234;SDS011;11286;45.596;5.284;2022-11-20T08:53:33;8.13;;;6.00;;
22234;SDS011;11286;45.596;5.284;2022-11-20T08:55:58;10.45;;;6.68;;
22234;SDS011;11286;45.596;5.284;2022-11-20T08:58:24;7.93;;;6.55;;
22234;SDS011;11286;45.596;5.284;2022-11-20T09:00:50;8.40;;;6.45;;
22234;SDS011;11286;45.596;5.284;2022-11-20T09:03:16;6.47;;;5.70;;
22234;SDS011;11286;45.596;5.284;2022-11-20T09:05:41;6.32;;;5.72;;
22234;SDS011;11286;45.596;5.284;2022-11-20T09:08:07;6.30;;;5.70;;
22234;SDS011;11286;45.596;5.284;2022-11-20T09:10:33;6.75;;;5.82;;
22234;SDS011;11286;45.596;5.284;2022-11-20T09:13:00;7.03;;;5.90;;
22234;SDS011;11286;45.596;5.284;2022-11-20T09:15:26;6.80;;;5.45;;
22234;SDS011;11286;45.596;5.284;2022-11-20T09:18:00;7.88;;;5.32;;
22234;SDS011;11286;45.596;5.284;2022-11-20T09:20:28;6.07;;;4.47;;
22234;SDS011;11286;45.596;5.284;2022-11-20T09:22:55;8.02;;;5.00;;
22234;SDS011;11286;45.596;5.284;2022-11-20T09:25:21;6.38;;;4.93;;
22234;SDS011;11286;45.596;5.284;2022-11-20T09:27:46;7.57;;;4.82;;
22234;SDS011;11286;45.596;5.284;2022-11-20T09:30:13;6.05;;;4.93;;
22234;SDS011;11286;45.596;5.284;2022-11-20T09:32:39;6.88;;;5.18;;
22234;SDS011;11286;45.596;5.284;2022-11-20T09:35:05;8.10;;;6.00;;
22234;SDS011;11286;45.596;5.284;2022-11-20T09:37:31;6.38;;;4.93;;
22234;SDS011;11286;45.596;5.284;2022-11-20T09:39:57;13.52;;;9.63;;
22234;SDS011;11286;45.596;5.284;2022-11-20T09:42:26;9.20;;;5.90;;
22234;SDS011;11286;45.596;5.284;2022-11-20T09:47:37;10.35;;;8.43;;
22234;SDS011;11286;45.596;5.284;2022-11-20T09:56:19;7.80;;;6.20;;
22234;SDS011;11286;45.596;5.284;2022-11-20T09:58:49;6.72;;;5.13;;
22234;SDS011;11286;45.596;5.284;2022-11-20T10:01:17;7.20;;;5.65;;
22234;SDS011;11286;45.596;5.284;2022-11-20T10:06:34;5.18;;;3.58;;
22234;SDS011;11286;45.596;5.284;2022-11-20T10:11:57;5.35;;;3.00;;
22234;SDS011;11286;45.596;5.284;2022-11-20T10:14:50;4.70;;;3.60;;
22234;SDS011;11286;45.596;5.284;2022-11-20T10:23:20;5.13;;;3.03;;
22234;SDS011;11286;45.596;5.284;2022-11-20T10:25:56;5.57;;;3.10;;
22234;SDS011;11286;45.596;5.284;2022-11-20T10:34:56;3.75;;;2.50;;
22234;SDS011;11286;45.596;5.284;2022-11-20T10:36:59;5.07;;;2.55;;
22234;SDS011;11286;45.596;5.284;2022-11-20T10:42:00;4.22;;;2.65;;
22234;SDS011;11286;45.596;5.284;2022-11-20T10:44:27;2.47;;;2.00;;
22234;SDS011;11286;45.596;5.284;2022-11-20T10:47:16;3.83;;;2.30;;
22234;SDS011;11286;45.596;5.284;2022-11-20T10:49:43;3.58;;;2.10;;
22234;SDS011;11286;45.596;5.284;2022-11-20T10:58:20;4.75;;;2.33;;
22234;SDS011;11286;45.596;5.284;2022-11-20T11:00:34;3.60;;;2.30;;
22234;SDS011;11286;45.596;5.284;2022-11-20T11:02:59;4.15;;;2.17;;
22234;SDS011;11286;45.596;5.284;2022-11-20T11:08:17;5.88;;;3.42;;
22234;SDS011;11286;45.596;5.284;2022-11-20T11:15:51;4.43;;;2.28;;
22234;SDS011;11286;45.596;5.284;2022-11-20T11:18:24;4.20;;;2.70;;
22234;SDS011;11286;45.596;5.284;2022-11-20T11:20:50;3.35;;;2.33;;
22234;SDS011;11286;45.596;5.284;2022-11-20T11:25:58;4.18;;;2.45;;
22234;SDS011;11286;45.596;5.284;2022-11-20T11:28:25;3.88;;;2.60;;
22234;SDS011;11286;45.596;5.284;2022-11-20T11:30:52;4.82;;;2.85;;
22234;SDS011;11286;45.596;5.284;2022-11-20T11:33:37;3.05;;;2.45;;
22234;SDS011;11286;45.596;5.284;2022-11-20T11:36:04;2.85;;;2.33;;
22234;SDS011;11286;45.596;5.284;2022-11-20T11:38:44;3.50;;;2.40;;
22234;SDS011;11286;45.596;5.284;2022-11-20T11:41:12;4.28;;;2.55;;
22234;SDS011;11286;45.596;5.284;2022-11-20T11:43:49;3.40;;;2.30;;
22234;SDS011;11286;45.596;5.284;2022-11-20T11:46:41;3.78;;;2.30;;
22234;SDS011;11286;45.596;5.284;2022-11-20T11:49:18;2.55;;;2.03;;
22234;SDS011;11286;45.596;5.284;2022-11-20T11:52:19;3.58;;;2.20;;
22234;SDS011;11286;45.596;5.284;2022-11-20T11:54:44;3.25;;;2.53;;
22234;SDS011;11286;45.596;5.284;2022-11-20T11:57:28;3.22;;;2.60;;
22234;SDS011;11286;45.596;5.284;2022-11-20T12:00:04;3.58;;;2.35;;
22234;SDS011;11286;45.596;5.284;2022-11-20T12:02:38;3.42;;;2.75;;
22234;SDS011;11286;45.596;5.284;2022-11-20T12:10:40;2.63;;;2.10;;
22234;SDS011;11286;45.596;5.284;2022-11-20T12:15:46;2.90;;;1.95;;
22234;SDS011;11286;45.596;5.284;2022-11-20T12:18:17;1.75;;;1.60;;
22234;SDS011;11286;45.596;5.284;2022-11-20T12:20:52;3.33;;;1.88;;
22234;SDS011;11286;45.596;5.284;2022-11-20T12:28:59;4.47;;;2.88;;
22234;SDS011;11286;45.596;5.284;2022-11-20T12:34:27;4.43;;;3.10;;
22234;SDS011;11286;45.596;5.284;2022-11-20T12:37:29;3.70;;;2.00;;
22234;SDS011;11286;45.596;5.284;2022-11-20T12:39:56;2.40;;;1.90;;
22234;SDS011;11286;45.596;5.284;2022-11-20T12:42:33;2.65;;;2.03;;
22234;SDS011;11286;45.596;5.284;2022-11-20T12:45:22;3.00;;;1.63;;
22234;SDS011;11286;45.596;5.284;2022-11-20T12:48:03;2.42;;;1.67;;
22234;SDS011;11286;45.596;5.284;2022-11-20T12:50:56;3.38;;;2.00;;
22234;SDS011;11286;45.596;5.284;2022-11-20T12:54:24;2.60;;;1.90;;
22234;SDS011;11286;45.596;5.284;2022-11-20T12:56:53;3.78;;;2.03;;
22234;SDS011;11286;45.596;5.284;2022-11-20T13:02:29;3.30;;;2.88;;
22234;SDS011;11286;45.596;5.284;2022-11-20T13:07:56;1.80;;;1.33;;
22234;SDS011;11286;45.596;5.284;2022-11-20T13:13:13;1.85;;;1.38;;
22234;SDS011;11286;45.596;5.284;2022-11-20T13:18:27;3.30;;;1.65;;
22234;SDS011;11286;45.596;5.284;2022-11-20T13:20:58;1.67;;;1.42;;
22234;SDS011;11286;45.596;5.284;2022-11-20T13:23:25;2.25;;;1.33;;
22234;SDS011;11286;45.596;5.284;2022-11-20T13:26:03;1.98;;;1.20;;
22234;SDS011;11286;45.596;5.284;2022-11-20T13:28:30;1.27;;;1.10;;
22234;SDS011;11286;45.596;5.284;2022-11-20T13:30:56;2.25;;;1.67;;
22234;SDS011;11286;45.596;5.284;2022-11-20T13:35:59;2.60;;;1.77;;
22234;SDS011;11286;45.596;5.284;2022-11-20T13:38:27;2.85;;;1.70;;
22234;SDS011;11286;45.596;5.284;2022-11-20T13:40:54;3.00;;;1.88;;
22234;SDS011;11286;45.596;5.284;2022-11-20T13:43:57;3.47;;;1.85;;
22234;SDS011;11286;45.596;5.284;2022-11-20T13:46:14;1.80;;;1.45;;
22234;SDS011;11286;45.596;5.284;2022-11-20T13:48:43;2.63;;;1.80;;
22234;SDS011;11286;45.596;5.284;2022-11-20T14:01:44;2.50;;;1.60;;
22234;SDS011;11286;45.596;5.284;2022-11-20T14:04:14;2.33;;;1.70;;
22234;SDS011;11286;45.596;5.284;2022-11-20T14:06:44;2.13;;;1.50;;
22234;SDS011;11286;45.596;5.284;2022-11-20T14:09:12;2.50;;;1.70;;
22234;SDS011;11286;45.596;5.284;2022-11-20T14:11:49;2.97;;;1.80;;
22234;SDS011;11286;45.596;5.284;2022-11-20T14:14:15;3.47;;;2.08;;
22234;SDS011;11286;45.596;5.284;2022-11-20T14:16:43;3.10;;;2.03;;
22234;SDS011;11286;45.596;5.284;2022-11-20T14:21:47;2.35;;;1.90;;
22234;SDS011;11286;45.596;5.284;2022-11-20T14:24:18;2.58;;;1.70;;
22234;SDS011;11286;45.596;5.284;2022-11-20T14:26:45;2.70;;;1.63;;
22234;SDS011;11286;45.596;5.284;2022-11-20T14:29:33;4.07;;;1.63;;
22234;SDS011;11286;45.596;5.284;2022-11-20T14:32:01;3.22;;;1.70;;
22234;SDS011;11286;45.596;5.284;2022-11-20T14:34:29;1.80;;;1.45;;
22234;SDS011;11286;45.596;5.284;2022-11-20T14:37:00;2.33;;;1.83;;
22234;SDS011;11286;45.596;5.284;2022-11-20T14:39:32;3.17;;;1.98;;
22234;SDS011;11286;45.596;5.284;2022-11-20T14:42:38;2.33;;;1.52;;
22234;SDS011;11286;45.596;5.284;2022-11-20T14:44:59;3.78;;;1.70;;
22234;SDS011;11286;45.596;5.284;2022-11-20T14:47:26;1.70;;;1.50;;
22234;SDS011;11286;45.596;5.284;2022-11-20T14:49:54;2.67;;;1.60;;
22234;SDS011;11286;45.596;5.284;2022-11-20T14:52:25;2.38;;;1.65;;
22234;SDS011;11286;45.596;5.284;2022-11-20T14:54:53;3.63;;;1.60;;
22234;SDS011;11286;45.596;5.284;2022-11-20T15:00:03;2.70;;;2.28;;
22234;SDS011;11286;45.596;5.284;2022-11-20T15:02:44;3.75;;;1.80;;
22234;SDS011;11286;45.596;5.284;2022-11-20T15:05:11;2.53;;;1.70;;
22234;SDS011;11286;45.596;5.284;2022-11-20T15:07:39;2.13;;;1.92;;
22234;SDS011;11286;45.596;5.284;2022-11-20T15:10:11;3.30;;;2.08;;
22234;SDS011;11286;45.596;5.284;2022-11-20T15:12:40;2.10;;;1.67;;
22234;SDS011;11286;45.596;5.284;2022-11-20T15:15:12;3.30;;;1.70;;
22234;SDS011;11286;45.596;5.284;2022-11-20T15:17:42;3.63;;;1.77;;
22234;SDS011;11286;45.596;5.284;2022-11-20T15:20:09;2.83;;;1.63;;
22234;SDS011;11286;45.596;5.284;2022-11-20T15:22:38;4.72;;;2.20;;
22234;SDS011;11286;45.596;5.284;2022-11-20T15:25:13;3.30;;;1.77;;
22234;SDS011;11286;45.596;5.284;2022-11-20T15:27:41;4.30;;;1.92;;
22234;SDS011;11286;45.596;5.284;2022-11-20T15:30:12;3.08;;;1.88;;
22234;SDS011;11286;45.596;5.284;2022-11-20T15:32:42;2.42;;;1.80;;
22234;SDS011;11286;45.596;5.284;2022-11-20T15:35:09;2.80;;;1.77;;
22234;SDS011;11286;45.596;5.284;2022-11-20T15:37:36;2.55;;;2.00;;
22234;SDS011;11286;45.596;5.284;2022-11-20T15:40:02;2.83;;;1.88;;
22234;SDS011;11286;45.596;5.284;2022-11-20T15:42:29;5.30;;;2.20;;
22234;SDS011;11286;45.596;5.284;2022-11-20T15:44:54;4.05;;;2.17;;
22234;SDS011;11286;45.596;5.284;2022-11-20T15:47:21;4.53;;;2.35;;
22234;SDS011;11286;45.596;5.284;2022-11-20T15:49:52;4.15;;;2.60;;
22234;SDS011;11286;45.596;5.284;2022-11-20T15:52:18;4.15;;;3.05;;
22234;SDS011;11286;45.596;5.284;2022-11-20T15:54:43;23.02;;;14.43;;
22234;SDS011;11286;45.596;5.284;2022-11-20T15:57:09;21.30;;;13.25;;
22234;SDS011;11286;45.596;5.284;2022-11-20T15:59:34;22.30;;;10.68;;
22234;SDS011;11286;45.596;5.284;2022-11-20T16:02:08;33.15;;;15.88;;
22234;SDS011;11286;45.596;5.284;2022-11-20T16:04:35;25.83;;;12.80;;
22234;SDS011;11286;45.596;5.284;2022-11-20T16:07:01;30.17;;;12.75;;
22234;SDS011;11286;45.596;5.284;2022-11-20T16:09:26;47.05;;;18.13;;
22234;SDS011;11286;45.596;5.284;2022-11-20T16:11:52;21.50;;;10.80;;
22234;SDS011;11286;45.596;5.284;2022-11-20T16:14:18;10.52;;;6.07;;
22234;SDS011;11286;45.596;5.284;2022-11-20T16:17:03;9.25;;;6.20;;
22234;SDS011;11286;45.596;5.284;2022-11-20T16:19:28;12.35;;;9.82;;
22234;SDS011;11286;45.596;5.284;2022-11-20T16:21:54;9.85;;;6.60;;
22234;SDS011;11286;45.596;5.284;2022-11-20T16:24:19;10.18;;;9.18;;
22234;SDS011;11286;45.596;5.284;2022-11-20T16:26:45;9.50;;;8.55;;
22234;SDS011;11286;45.596;5.284;2022-11-20T16:29:11;6.45;;;5.22;;
22234;SDS011;11286;45.596;5.284;2022-11-20T16:31:36;5.43;;;4.40;;